Time;durP1;ratioP1;P1;durP2;ratioP2;P2;SDS_P1;SDS_P2;PMS_P1;PMS_P2;Temp;Humidity;BMP_temperature;BMP_pressure;BME280_temperature;BME280_humidity;BME280_pressure;Samples;Min_cycle;Max_cycle;Signal;HPM_P1;HPM_P2
2023/11/09 00:00:06;;;;;;;1.73;1.30;;;;;;;11.80;100.00;102410.22;5051339;28;20510;-77
2023/11/09 00:02:31;;;;;;;1.50;1.40;;;;;;;11.66;100.00;102405.03;5049197;28;20036;-76
2023/11/09 00:04:56;;;;;;;2.40;1.45;;;;;;;11.61;100.00;102391.34;5051374;28;20045;-75
2023/11/09 00:07:23;;;;;;;3.05;1.35;;;;;;;11.90;100.00;102457.88;5033535;28;20059;-75
2023/11/09 00:09:52;;;;;;;1.58;1.10;;;;;;;11.88;100.00;102450.22;5051885;28;20498;-76
2023/11/09 00:12:20;;;;;;;1.58;0.98;;;;;;;12.05;100.00;102460.50;5050959;28;20063;-76
2023/11/09 00:14:50;;;;;;;1.67;1.20;;;;;;;12.08;100.00;102451.16;5033250;28;20033;-77
2023/11/09 00:17:18;;;;;;;1.92;1.20;;;;;;;11.59;100.00;102392.22;5051163;28;20060;-76
2023/11/09 00:19:43;;;;;;;2.42;1.27;;;;;;;11.94;100.00;102455.31;5050800;28;20074;-76
2023/11/09 00:22:09;;;;;;;2.00;1.23;;;;;;;11.83;100.00;102425.50;5048761;28;20404;-74
2023/11/09 00:24:35;;;;;;;2.13;1.20;;;;;;;11.79;100.00;102428.88;5050289;28;20029;-75
2023/11/09 00:27:00;;;;;;;2.05;1.30;;;;;;;11.67;100.00;102460.22;5049483;28;20054;-74
2023/11/09 00:29:26;;;;;;;1.67;1.10;;;;;;;11.65;100.00;102438.09;5050149;28;20033;-74
2023/11/09 00:31:51;;;;;;;1.35;1.17;;;;;;;11.78;100.00;102476.47;5049890;28;20048;-73
2023/11/09 00:34:17;;;;;;;2.38;1.30;;;;;;;11.89;100.00;102468.88;5048865;28;20044;-73
2023/11/09 00:36:42;;;;;;;2.22;1.30;;;;;;;11.74;100.00;102456.91;5048470;28;20025;-71
2023/11/09 00:39:12;;;;;;;2.00;1.30;;;;;;;11.31;100.00;102416.59;5048931;28;21396;-74
2023/11/09 00:41:39;;;;;;;3.05;1.25;;;;;;;11.58;100.00;102493.28;5049713;28;20025;-73
2023/11/09 00:44:05;;;;;;;1.58;1.25;;;;;;;10.96;100.00;102410.34;5049190;28;20025;-73
2023/11/09 00:46:31;;;;;;;1.90;1.20;;;;;;;11.91;100.00;102492.69;5048210;28;20036;-73
2023/11/09 00:48:57;;;;;;;1.67;1.30;;;;;;;11.64;100.00;102454.25;5049503;28;20037;-74
2023/11/09 00:51:22;;;;;;;2.65;1.33;;;;;;;11.47;100.00;102420.97;5047435;28;20419;-73
2023/11/09 00:53:48;;;;;;;1.35;1.20;;;;;;;11.77;100.00;102479.00;5048709;28;20025;-73
2023/11/09 00:56:15;;;;;;;2.97;1.60;;;;;;;11.86;100.00;102490.13;5049051;28;22965;-73
2023/11/09 00:58:40;;;;;;;1.58;1.48;;;;;;;11.56;100.00;102468.59;5049526;28;20499;-73
2023/11/09 01:01:06;;;;;;;2.50;1.70;;;;;;;11.24;100.00;102407.22;5048869;28;20036;-74
2023/11/09 01:03:32;;;;;;;2.45;1.70;;;;;;;11.64;100.00;102477.16;5049588;28;20032;-75
2023/11/09 01:06:04;;;;;;;2.42;1.50;;;;;;;11.13;100.00;102419.84;5049117;28;20056;-74
2023/11/09 01:08:29;;;;;;;2.53;1.45;;;;;;;11.12;100.00;102409.66;5049037;28;20107;-73
2023/11/09 01:10:55;;;;;;;2.53;1.65;;;;;;;11.14;100.00;102415.59;5048819;28;20075;-73
2023/11/09 01:13:21;;;;;;;1.33;1.20;;;;;;;11.44;100.00;102453.22;5048967;28;20033;-75
2023/11/09 01:15:46;;;;;;;1.80;1.30;;;;;;;11.60;100.00;102461.00;5048149;28;20045;-75
2023/11/09 01:18:12;;;;;;;1.60;1.20;;;;;;;11.66;100.00;102467.88;5049234;28;20025;-72
2023/11/09 01:20:37;;;;;;;3.20;1.27;;;;;;;10.99;100.00;102382.38;5047377;28;20029;-73
2023/11/09 01:23:04;;;;;;;1.48;1.38;;;;;;;11.21;100.00;102414.84;5048664;28;20047;-74
2023/11/09 01:25:29;;;;;;;1.63;1.20;;;;;;;11.64;100.00;102477.16;5048408;28;20033;-73
2023/11/09 01:27:55;;;;;;;3.35;1.50;;;;;;;11.38;100.00;102428.56;5048878;28;20029;-75
2023/11/09 01:30:20;;;;;;;4.22;1.27;;;;;;;11.43;100.00;102431.97;5046896;28;20475;-75
2023/11/09 01:32:46;;;;;;;2.15;1.35;;;;;;;11.13;100.00;102370.63;5048956;28;20044;-75
2023/11/09 01:35:12;;;;;;;1.30;1.13;;;;;;;11.17;100.00;102385.09;5031181;28;20128;-76
2023/11/09 01:37:38;;;;;;;1.58;1.10;;;;;;;11.12;100.00;102374.00;5047419;28;20046;-76
2023/11/09 01:40:04;;;;;;;1.50;1.30;;;;;;;11.47;100.00;102432.88;5049998;28;20037;-74
2023/11/09 01:42:30;;;;;;;2.13;1.30;;;;;;;11.00;100.00;102349.31;5049371;28;20479;-76
2023/11/09 01:44:55;;;;;;;2.17;1.50;;;;;;;11.36;100.00;102407.31;5049816;28;20025;-76
2023/11/09 01:47:22;;;;;;;2.30;1.20;;;;;;;11.41;100.00;102412.44;5048831;28;20045;-75
2023/11/09 01:49:48;;;;;;;1.92;1.50;;;;;;;11.43;100.00;102415.88;5049154;28;20079;-74
2023/11/09 01:52:14;;;;;;;4.25;1.40;;;;;;;11.34;100.00;102417.50;5031779;28;20032;-76
2023/11/09 01:54:41;;;;;;;2.33;1.33;;;;;;;10.93;100.00;102352.66;5049101;28;20036;-76
2023/11/09 01:57:10;;;;;;;5.35;1.63;;;;;;;11.29;100.00;102448.84;5048318;28;20057;-73
2023/11/09 01:59:41;;;;;;;2.92;1.50;;;;;;;10.59;100.00;102331.94;5048212;28;20029;-72
2023/11/09 02:02:06;;;;;;;3.03;1.52;;;;;;;10.87;100.00;102359.38;5048863;28;20037;-73
2023/11/09 02:04:32;;;;;;;1.55;1.30;;;;;;;10.97;100.00;102368.78;5048025;28;20048;-75
2023/11/09 02:06:58;;;;;;;2.13;1.30;;;;;;;11.30;100.00;102407.25;5047094;28;20029;-72
2023/11/09 02:09:23;;;;;;;1.83;1.10;;;;;;;11.34;100.00;102421.72;5048022;28;20033;-71
2023/11/09 02:11:49;;;;;;;1.20;1.05;;;;;;;11.32;100.00;102426.81;5048184;28;20025;-73
2023/11/09 02:14:15;;;;;;;1.42;1.30;;;;;;;11.26;100.00;102436.09;5048006;28;20033;-73
2023/11/09 02:16:41;;;;;;;3.22;1.38;;;;;;;11.20;100.00;102357.09;5047622;28;20029;-73
2023/11/09 02:19:10;;;;;;;2.30;1.40;;;;;;;11.00;100.00;102328.06;5047839;28;20055;-75
2023/11/09 02:21:36;;;;;;;1.63;1.27;;;;;;;11.08;100.00;102329.00;5048239;28;20028;-73
2023/11/09 02:24:09;;;;;;;2.05;1.10;;;;;;;11.26;100.00;102362.25;5047802;28;20039;-76
2023/11/09 02:26:34;;;;;;;1.48;1.20;;;;;;;11.39;100.00;102381.84;5048639;28;20025;-75
2023/11/09 02:29:00;;;;;;;2.83;1.30;;;;;;;11.27;100.00;102363.94;5046800;28;20068;-74
2023/11/09 02:31:25;;;;;;;1.95;1.35;;;;;;;11.40;100.00;102375.94;5047900;28;20032;-74
2023/11/09 02:33:51;;;;;;;3.83;1.30;;;;;;;11.05;100.00;102326.44;5048108;28;20028;-76
2023/11/09 02:36:17;;;;;;;3.55;1.30;;;;;;;11.35;100.00;102382.66;5030861;28;20438;-75
2023/11/09 02:38:43;;;;;;;2.33;1.20;;;;;;;11.37;100.00;102365.69;5029408;28;20033;-74
2023/11/09 02:41:08;;;;;;;1.90;1.27;;;;;;;10.92;100.00;102300.03;5048428;28;20062;-76
2023/11/09 02:43:40;;;;;;;1.52;1.20;;;;;;;11.24;100.00;102354.59;5048052;28;20025;-74
2023/11/09 02:46:06;;;;;;;1.20;1.10;;;;;;;10.94;100.00;102312.75;5048746;28;20057;-75
2023/11/09 02:48:31;;;;;;;2.33;1.30;;;;;;;11.12;100.00;102356.19;5046511;28;20041;-76
2023/11/09 02:50:57;;;;;;;2.13;1.02;;;;;;;10.63;100.00;102283.66;5047314;28;20078;-75
2023/11/09 02:53:22;;;;;;;1.38;1.20;;;;;;;10.69;100.00;102291.34;5047468;28;20179;-72
2023/11/09 02:55:48;;;;;;;1.90;1.10;;;;;;;11.11;100.00;102362.13;5048226;28;20025;-73
2023/11/09 02:58:13;;;;;;;2.35;1.10;;;;;;;11.11;100.00;102379.94;5047351;28;20071;-74
2023/11/09 03:00:39;;;;;;;1.98;1.10;;;;;;;10.71;100.00;102307.47;5047840;28;20056;-73
2023/11/09 03:03:04;;;;;;;2.28;1.15;;;;;;;11.01;100.00;102365.44;5046369;28;20029;-73
2023/11/09 03:05:30;;;;;;;1.40;1.10;;;;;;;10.29;100.00;102246.88;5047394;28;20053;-73
2023/11/09 03:07:55;;;;;;;3.88;1.25;;;;;;;10.89;100.00;102370.41;5047655;28;20388;-71
2023/11/09 03:10:21;;;;;;;2.30;1.00;;;;;;;10.44;100.00;102294.47;5047666;28;20052;-72
2023/11/09 03:12:47;;;;;;;1.30;1.08;;;;;;;10.34;100.00;102291.00;5029098;28;20039;-75
2023/11/09 03:15:13;;;;;;;1.85;0.95;;;;;;;10.51;100.00;102305.56;5047320;28;20029;-74
2023/11/09 03:17:42;;;;;;;1.30;0.90;;;;;;;10.80;100.00;102365.22;5049259;28;20434;-75
2023/11/09 03:20:09;;;;;;;1.98;1.00;;;;;;;10.91;100.00;102381.47;5050682;28;20123;-74
2023/11/09 03:22:37;;;;;;;1.00;0.90;;;;;;;10.48;100.00;102315.72;5052159;28;20044;-75
2023/11/09 03:25:05;;;;;;;1.55;0.90;;;;;;;10.70;100.00;102330.34;5051812;28;20110;-75
2023/11/09 03:27:31;;;;;;;1.52;0.88;;;;;;;10.80;100.00;102377.94;5050670;28;20418;-74
2023/11/09 03:29:56;;;;;;;3.78;1.00;;;;;;;10.89;100.00;102389.09;5050449;28;20059;-73
2023/11/09 03:32:23;;;;;;;1.90;0.90;;;;;;;10.92;100.00;102385.69;5048638;28;20728;-70
2023/11/09 03:34:48;;;;;;;2.53;1.00;;;;;;;11.01;100.00;102396.81;5050908;28;20104;-72
2023/11/09 03:37:14;;;;;;;1.23;1.00;;;;;;;11.06;100.00;102407.03;5050053;28;20116;-72
2023/11/09 03:39:39;;;;;;;2.40;1.45;;;;;;;10.30;100.00;102265.56;5032882;28;20056;-72
2023/11/09 03:42:05;;;;;;;2.05;1.10;;;;;;;10.99;100.00;102367.13;5050945;28;20025;-76
2023/11/09 03:44:39;;;;;;;3.60;2.45;;;;;;;10.94;100.00;102384.03;5049110;28;20414;-73
2023/11/09 03:47:05;;;;;;;1.70;1.00;;;;;;;10.53;100.00;102309.00;5028632;28;20028;-74
2023/11/09 03:49:31;;;;;;;2.60;1.30;;;;;;;10.78;100.00;102365.22;5049145;28;20045;-73
2023/11/09 03:51:56;;;;;;;1.42;0.90;;;;;;;10.36;100.00;102324.06;5050500;28;20029;-74
2023/11/09 03:54:21;;;;;;;1.30;0.90;;;;;;;10.35;100.00;102302.03;5050690;28;20029;-74
2023/11/09 03:56:47;;;;;;;1.85;0.85;;;;;;;10.44;100.00;102325.00;5049850;28;21237;-75
2023/11/09 03:59:12;;;;;;;2.60;0.98;;;;;;;10.76;100.00;102378.75;5050152;28;20055;-72
2023/11/09 04:01:38;;;;;;;1.60;0.90;;;;;;;10.64;100.00;102384.56;5049178;28;20107;-73
2023/11/09 04:04:05;;;;;;;1.27;0.80;;;;;;;10.20;100.00;102330.66;5049143;28;20033;-74
2023/11/09 04:06:31;;;;;;;1.65;1.00;;;;;;;10.37;100.00;102339.34;5050204;28;20123;-75
2023/11/09 04:08:56;;;;;;;1.83;0.85;;;;;;;10.22;100.00;102336.63;5050610;28;20177;-73
2023/11/09 04:11:22;;;;;;;1.17;0.80;;;;;;;10.65;100.00;102409.19;5032675;28;20060;-76
2023/11/09 04:13:47;;;;;;;1.33;1.20;;;;;;;10.37;100.00;102414.78;5050462;28;20078;-73
2023/11/09 04:16:12;;;;;;;3.67;1.25;;;;;;;10.29;100.00;102373.16;5048757;28;20033;-74
2023/11/09 04:18:38;;;;;;;2.20;1.10;;;;;;;9.96;100.00;102332.06;5050345;28;20040;-74
2023/11/09 04:21:05;;;;;;;1.75;1.10;;;;;;;10.51;100.00;102437.84;5050148;28;20033;-75
2023/11/09 04:23:31;;;;;;;1.40;0.93;;;;;;;10.63;100.00;102445.59;5050206;28;20041;-75
2023/11/09 04:25:57;;;;;;;3.67;1.00;;;;;;;10.29;100.00;102378.25;5032405;28;20033;-74
2023/11/09 04:28:22;;;;;;;4.15;1.70;;;;;;;10.55;100.00;102431.94;5049230;28;20048;-75
2023/11/09 04:30:51;;;;;;;2.63;1.10;;;;;;;10.06;100.00;102356.75;5049911;28;20029;-77
2023/11/09 04:33:17;;;;;;;1.58;0.90;;;;;;;10.59;100.00;102448.97;5048950;28;20032;-75
2023/11/09 04:35:46;;;;;;;2.10;0.90;;;;;;;10.45;100.00;102457.28;5049700;28;20043;-72
2023/11/09 04:38:15;;;;;;;2.30;1.02;;;;;;;10.17;100.00;102406.91;5049109;28;20549;-71
2023/11/09 04:40:43;;;;;;;2.63;1.70;;;;;;;10.07;100.00;102389.81;5049497;28;20025;-72
2023/11/09 04:43:11;;;;;;;2.22;1.30;;;;;;;10.66;100.00;102464.31;5046219;28;20033;-73
2023/11/09 04:45:38;;;;;;;2.72;1.00;;;;;;;10.24;100.00;102413.75;5048120;28;20032;-72
2023/11/09 04:48:08;;;;;;;3.88;1.27;;;;;;;10.14;100.00;102419.56;5047660;28;20055;-73
2023/11/09 04:50:33;;;;;;;3.78;1.50;;;;;;;10.58;100.00;102470.16;5047353;28;20040;-71
2023/11/09 04:53:15;;;;;;;3.78;1.40;;;;;;;10.14;100.00;102411.94;5047972;28;20036;-75
2023/11/09 04:55:53;;;;;;;;;;;;;;;10.32;100.00;102469.78;5049636;28;20103;-72
2023/11/09 05:06:48;;;;;;;3.17;2.00;;;;;;;9.52;100.00;102416.13;5048030;28;20514;-74
2023/11/09 05:09:15;;;;;;;3.28;1.80;;;;;;;10.16;100.00;102539.09;5047205;28;20033;-74
2023/11/09 05:11:40;;;;;;;3.10;2.00;;;;;;;9.77;100.00;102496.06;5049026;28;20036;-72
2023/11/09 05:14:06;;;;;;;3.85;1.77;;;;;;;9.87;100.00;102552.97;5047695;28;20040;-76
2023/11/09 05:16:31;;;;;;;4.43;1.92;;;;;;;9.76;100.00;102534.16;5049538;28;20079;-74
2023/11/09 05:18:57;;;;;;;3.13;1.70;;;;;;;9.70;100.00;102532.38;5047959;28;20044;-71
2023/11/09 05:21:23;;;;;;;2.58;1.88;;;;;;;9.52;100.00;102529.53;5030515;28;20036;-71
2023/11/09 05:23:49;;;;;;;2.05;1.55;;;;;;;9.97;100.00;102610.72;5048208;28;20056;-73
2023/11/09 05:26:15;;;;;;;2.35;1.45;;;;;;;9.43;100.00;102559.81;5048962;28;20138;-74
2023/11/09 05:28:40;;;;;;;2.53;1.70;;;;;;;9.58;100.00;102555.03;5048516;28;20555;-72
2023/11/09 05:31:08;;;;;;;5.57;1.48;;;;;;;9.86;100.00;102581.75;5048239;28;20110;-73
2023/11/09 05:33:34;;;;;;;5.85;1.70;;;;;;;10.98;100.00;102683.56;5045909;28;20047;-72
2023/11/09 05:36:00;;;;;;;2.70;1.40;;;;;;;10.28;100.00;102598.56;5047102;28;20565;-71
2023/11/09 05:38:26;;;;;;;3.90;1.75;;;;;;;10.81;100.00;102626.50;5044297;28;20135;-72
2023/11/09 05:40:52;;;;;;;12.25;2.75;;;;;;;14.64;100.00;102797.91;5047205;28;20064;-77
2023/11/09 05:43:18;;;;;;;2.65;1.98;;;;;;;12.87;100.00;102722.16;5046572;28;20060;-69
2023/11/09 05:45:44;;;;;;;3.10;2.17;;;;;;;14.35;100.00;102779.09;5046852;28;20036;-71
2023/11/09 05:48:09;;;;;;;4.07;1.95;;;;;;;17.12;100.00;102792.59;5046956;28;20111;-71
2023/11/09 05:50:35;;;;;;;40.20;4.60;;;;;;;17.73;100.00;102741.31;5045351;28;20479;-71
2023/11/09 05:53:01;;;;;;;4.47;2.45;;;;;;;18.38;100.00;102621.88;5046263;28;20032;-71
2023/11/09 05:55:30;;;;;;;11.38;2.70;;;;;;;17.20;100.00;102461.66;5048302;28;20072;-74
2023/11/09 05:57:58;;;;;;;3.50;1.30;;;;;;;17.44;100.00;102393.53;5046745;28;20040;-72
2023/11/09 06:00:28;;;;;;;2.03;1.33;;;;;;;17.56;100.00;102389.06;5047478;28;20487;-71
2023/11/09 06:02:53;;;;;;;10.75;2.08;;;;;;;16.44;100.00;102300.00;5047098;28;20033;-73
2023/11/09 06:05:19;;;;;;;1.90;1.50;;;;;;;12.21;100.00;102072.09;5046551;28;20048;-71
2023/11/09 06:07:46;;;;;;;2.40;1.63;;;;;;;12.18;100.00;102176.66;5047098;28;20043;-75
2023/11/09 06:10:13;;;;;;;3.42;1.60;;;;;;;11.91;100.00;102103.53;5047237;28;20408;-72
2023/11/09 06:12:40;;;;;;;2.90;1.27;;;;;;;13.88;100.00;102216.31;5046073;28;20094;-72
2023/11/09 06:15:06;;;;;;;5.00;1.50;;;;;;;17.67;100.00;102324.53;5028278;28;20455;-72
2023/11/09 06:17:31;;;;;;;2.60;1.40;;;;;;;16.96;100.00;102087.59;5046820;28;20111;-69
2023/11/09 06:19:59;;;;;;;2.28;1.55;;;;;;;17.90;100.00;101995.44;5048104;28;20112;-73
2023/11/09 06:22:24;;;;;;;3.30;1.77;;;;;;;20.12;100.00;101947.34;5047364;28;20037;-71
2023/11/09 06:24:51;;;;;;;3.97;2.17;;;;;;;17.94;100.00;101743.06;5047444;28;20567;-72
2023/11/09 06:27:17;;;;;;;4.75;2.15;;;;;;;18.67;100.00;101826.66;5047638;28;20561;-73
2023/11/09 06:29:42;;;;;;;3.03;1.92;;;;;;;20.79;100.00;102147.41;5047429;28;20029;-72
2023/11/09 06:32:08;;;;;;;3.45;1.65;;;;;;;17.70;100.00;102401.66;5047254;28;20504;-72
2023/11/09 06:34:34;;;;;;;3.63;1.60;;;;;;;19.51;100.00;102599.00;5047349;28;20484;-71
2023/11/09 06:37:00;;;;;;;4.07;1.33;;;;;;;19.06;100.00;102577.59;5047772;28;20025;-73
2023/11/09 06:39:26;;;;;;;3.97;1.35;;;;;;;20.35;100.00;102490.94;5029740;28;20044;-75
2023/11/09 06:41:51;;;;;;;3.03;1.20;;;;;;;19.22;100.00;102124.91;5047408;28;20033;-70
2023/11/09 06:44:17;;;;;;;3.30;1.20;;;;;;;17.85;100.00;101938.91;5029721;28;20507;-72
2023/11/09 06:46:44;;;;;;;3.20;1.17;;;;;;;18.39;100.00;101987.22;5047409;28;20020;-74
2023/11/09 06:49:11;;;;;;;2.95;1.10;;;;;;;15.73;100.00;101805.09;5047430;28;20032;-73
2023/11/09 06:51:36;;;;;;;3.40;0.90;;;;;;;13.94;100.00;101733.75;5048512;28;20036;-73
2023/11/09 06:54:04;;;;;;;3.05;1.00;;;;;;;12.88;100.00;101871.94;5051180;28;20067;-73
2023/11/09 06:56:32;;;;;;;1.95;1.00;;;;;;;12.57;100.00;101916.38;5050183;28;20044;-74
2023/11/09 06:59:02;;;;;;;1.83;0.80;;;;;;;12.81;100.00;102130.69;5033659;28;20479;-73
2023/11/09 07:01:27;;;;;;;2.97;1.10;;;;;;;12.81;100.00;102158.75;5051419;28;20036;-73
2023/11/09 07:03:53;;;;;;;4.20;1.75;;;;;;;12.92;100.00;102279.59;5050876;28;20025;-74
2023/11/09 07:06:19;;;;;;;2.17;1.15;;;;;;;13.09;100.00;102363.91;5051478;28;20104;-73
2023/11/09 07:08:45;;;;;;;2.55;1.00;;;;;;;11.84;100.00;102287.91;5051364;28;20059;-74
2023/11/09 07:11:10;;;;;;;4.18;1.15;;;;;;;12.71;100.00;102434.44;5050787;28;20037;-75
2023/11/09 07:13:37;;;;;;;2.78;1.08;;;;;;;12.78;100.00;102512.72;5051403;28;20049;-71
2023/11/09 07:16:04;;;;;;;3.40;0.82;;;;;;;12.78;100.00;102553.59;5050680;28;20083;-72
2023/11/09 07:18:30;;;;;;;1.83;1.15;;;;;;;12.68;100.00;102613.94;5051775;28;20119;-72
2023/11/09 07:20:55;;;;;;;2.22;0.70;;;;;;;12.60;100.00;102600.28;5051229;28;20029;-73
2023/11/09 07:23:24;;;;;;;1.92;0.98;;;;;;;12.90;100.00;102671.09;5050901;28;20078;-73
2023/11/09 07:25:53;;;;;;;3.63;1.05;;;;;;;12.85;100.00;102655.78;5050308;28;20513;-72
2023/11/09 07:28:20;;;;;;;2.25;1.42;;;;;;;13.11;100.00;102660.19;5050887;28;20044;-72
2023/11/09 07:30:48;;;;;;;4.20;1.30;;;;;;;13.45;100.00;102683.31;5050885;28;20021;-71
2023/11/09 07:33:14;;;;;;;3.53;1.23;;;;;;;12.79;100.00;102614.88;5050918;28;20033;-72
2023/11/09 07:35:44;;;;;;;2.45;1.10;;;;;;;12.85;100.00;102624.28;5031053;28;20051;-73
2023/11/09 07:38:13;;;;;;;4.30;2.13;;;;;;;12.77;100.00;102619.13;5050555;28;20471;-71
2023/11/09 07:40:40;;;;;;;2.88;1.42;;;;;;;13.30;100.00;102679.84;5049655;28;20036;-71
2023/11/09 07:43:08;;;;;;;3.33;1.42;;;;;;;13.18;100.00;102657.66;5050080;28;20036;-72
2023/11/09 07:45:35;;;;;;;3.33;1.20;;;;;;;13.47;100.00;102666.28;5050737;28;20057;-73
2023/11/09 07:48:00;;;;;;;4.20;1.13;;;;;;;13.34;100.00;102641.56;5050547;28;20036;-72
2023/11/09 07:50:26;;;;;;;4.07;1.20;;;;;;;12.86;100.00;102557.03;5050462;28;20029;-72
2023/11/09 07:52:52;;;;;;;5.93;1.33;;;;;;;13.32;100.00;102579.38;5050741;28;20037;-72
2023/11/09 07:55:19;;;;;;;2.22;0.90;;;;;;;12.95;100.00;102539.19;5031393;28;20114;-72
2023/11/09 07:57:48;;;;;;;3.22;0.90;;;;;;;12.92;100.00;102509.41;5050455;28;20026;-72
2023/11/09 08:00:15;;;;;;;2.90;1.33;;;;;;;13.34;100.00;102523.16;5049329;28;20037;-72
2023/11/09 08:02:41;;;;;;;5.63;1.23;;;;;;;13.26;100.00;102492.47;5049673;28;20059;-72
2023/11/09 08:05:13;;;;;;;3.00;0.90;;;;;;;13.30;100.00;102501.00;5049673;28;20084;-72
2023/11/09 08:07:38;;;;;;;;;;;;;;;13.42;100.00;102478.88;5050650;28;20021;-72
2023/11/09 08:10:04;;;;;;;5.35;1.60;;;;;;;13.42;100.00;102427.75;5050214;28;19916;-72
2023/11/09 08:12:30;;;;;;;1.70;1.10;;;;;;;13.52;100.00;102403.03;5050073;28;20432;-73
2023/11/09 08:14:56;;;;;;;2.20;1.00;;;;;;;13.68;100.00;102357.00;5032364;28;20411;-73
2023/11/09 08:17:22;;;;;;;3.80;0.73;;;;;;;13.37;100.00;102219.09;5050384;28;20032;-72
2023/11/09 08:19:49;;;;;;;3.53;1.98;;;;;;;13.94;100.00;102252.91;5032116;28;20112;-72
2023/11/09 08:22:15;;;;;;;2.42;1.00;;;;;;;13.74;100.00;102126.91;5049887;28;20025;-72
2023/11/09 08:24:41;;;;;;;2.10;1.00;;;;;;;14.06;100.00;102090.00;5049595;28;20170;-71
2023/11/09 08:27:07;;;;;;;4.10;0.90;;;;;;;14.19;100.00;102041.25;5032378;28;20159;-73
2023/11/09 08:29:35;;;;;;;3.50;1.00;;;;;;;14.24;100.00;102007.97;5049566;28;20037;-72
2023/11/09 08:32:02;;;;;;;5.93;1.50;;;;;;;14.34;100.00;101996.81;5048627;28;20033;-71
2023/11/09 08:34:29;;;;;;;3.13;1.10;;;;;;;14.14;100.00;101906.59;5031890;28;20105;-74
2023/11/09 08:36:55;;;;;;;4.07;1.10;;;;;;;14.26;100.00;101884.25;5049891;28;20029;-74
2023/11/09 08:39:22;;;;;;;1.85;0.80;;;;;;;14.40;100.00;101864.47;5048329;28;20063;-72
2023/11/09 08:41:48;;;;;;;1.80;0.70;;;;;;;14.43;100.00;101941.25;5049503;28;20063;-73
2023/11/09 08:44:15;;;;;;;2.53;0.80;;;;;;;14.14;100.00;101835.81;5049406;28;20099;-71
2023/11/09 08:46:41;;;;;;;2.42;0.80;;;;;;;14.37;100.00;101823.59;5049598;28;20040;-72
2023/11/09 08:49:07;;;;;;;1.42;0.70;;;;;;;14.56;100.00;101717.50;5049431;28;20037;-72
2023/11/09 08:51:34;;;;;;;1.30;0.77;;;;;;;14.26;100.00;101531.16;5048655;28;20585;-72
2023/11/09 08:54:01;;;;;;;1.23;0.73;;;;;;;15.01;100.00;101567.31;5049121;28;20112;-72
2023/11/09 08:56:27;;;;;;;1.40;0.60;;;;;;;15.02;100.00;101547.63;5049498;28;20033;-73
2023/11/09 08:58:53;;;;;;;2.42;0.80;;;;;;;15.00;100.00;102175.31;5049343;28;20147;-73
2023/11/09 09:01:18;;;;;;;1.17;0.60;;;;;;;14.56;100.00;102308.00;5048700;28;20029;-72
2023/11/09 09:03:50;;;;;;;1.95;0.80;;;;;;;14.70;100.00;102368.53;5048210;28;20063;-70
2023/11/09 09:06:17;;;;;;;1.70;0.60;;;;;;;14.94;100.00;102262.47;5048474;28;20431;-71
2023/11/09 09:08:44;;;;;;;1.85;0.50;;;;;;;14.89;100.00;102230.94;5049096;28;20098;-72
2023/11/09 09:11:11;;;;;;;2.42;0.73;;;;;;;15.57;100.00;102255.84;5048934;28;20032;-72
2023/11/09 09:13:36;;;;;;;2.72;0.82;;;;;;;14.77;100.00;102021.03;5031054;28;20104;-73
2023/11/09 09:16:02;;;;;;;1.65;0.75;;;;;;;15.25;100.00;101930.66;5048948;28;20464;-72
2023/11/09 09:18:28;;;;;;;2.28;0.73;;;;;;;15.03;100.00;101875.53;5048705;28;20108;-73
2023/11/09 09:20:53;;;;;;;1.15;0.65;;;;;;;15.28;100.00;101865.72;5048440;28;20388;-72
2023/11/09 09:23:19;;;;;;;1.88;0.60;;;;;;;15.35;100.00;101864.75;5048300;28;20383;-72
2023/11/09 09:25:44;;;;;;;4.97;0.70;;;;;;;15.63;100.00;101767.69;5031357;28;20057;-72
2023/11/09 09:28:10;;;;;;;1.70;0.90;;;;;;;15.31;100.00;101686.28;5048681;28;20029;-69
2023/11/09 09:30:36;;;;;;;3.22;0.80;;;;;;;15.41;100.00;101646.75;5047320;28;20389;-72
2023/11/09 09:33:03;;;;;;;1.08;0.70;;;;;;;15.88;100.00;101632.91;5048479;28;20032;-72
2023/11/09 09:35:30;;;;;;;1.60;0.80;;;;;;;15.91;100.00;101558.44;5030246;28;20116;-72
2023/11/09 09:37:59;;;;;;;1.98;1.00;;;;;;;16.32;100.00;101563.41;5047462;28;20025;-72
2023/11/09 09:40:29;;;;;;;2.33;0.90;;;;;;;15.51;100.00;101385.06;5048578;28;20025;-71
2023/11/09 09:42:56;;;;;;;1.60;0.80;;;;;;;15.90;100.00;101372.91;5046565;28;20021;-71
2023/11/09 09:45:31;;;;;;;6.22;1.33;;;;;;;16.34;100.00;101338.28;5048226;28;20673;-73
2023/11/09 09:47:59;;;;;;;1.58;0.93;;;;;;;16.31;100.00;101284.47;5047670;28;20037;-68
2023/11/09 09:50:37;;;;;;;3.15;0.90;;;;;;;15.47;100.00;101149.34;5048265;28;20032;-72
2023/11/09 09:53:04;;;;;;;2.72;1.17;;;;;;;15.96;100.00;101192.34;5047904;28;20029;-71
2023/11/09 09:55:30;;;;;;;2.53;0.90;;;;;;;15.71;100.00;101106.78;5048207;28;20076;-72
2023/11/09 09:57:59;;;;;;;1.42;0.70;;;;;;;16.15;100.00;101119.03;5048086;28;20056;-72
2023/11/09 10:00:28;;;;;;;1.65;0.60;;;;;;;16.01;100.00;101039.09;5044591;28;20029;-72
2023/11/09 10:02:59;;;;;;;3.38;0.80;;;;;;;16.71;100.00;101060.66;5046620;28;20078;-73
2023/11/09 10:05:26;;;;;;;1.45;0.70;;;;;;;16.57;100.00;101040.59;5047695;28;20032;-72
2023/11/09 10:08:07;;;;;;;4.70;1.42;;;;;;;16.49;100.00;101006.66;5047734;28;20056;-73
2023/11/09 10:10:41;;;;;;;1.83;0.70;;;;;;;16.50;100.00;100997.22;5047085;28;20029;-72
2023/11/09 10:13:10;;;;;;;2.58;0.77;;;;;;;16.43;100.00;100943.50;5030465;28;21786;-72
2023/11/09 10:15:37;;;;;;;2.47;1.23;;;;;;;16.41;100.00;100924.75;5029479;28;20036;-71
2023/11/09 10:18:04;;;;;;;1.88;0.90;;;;;;;16.93;100.00;100954.50;5047176;28;20029;-69
2023/11/09 10:20:32;;;;;;;2.35;0.90;;;;;;;16.66;100.00;100886.19;5046075;28;20074;-70
2023/11/09 10:22:59;;;;;;;2.67;0.80;;;;;;;16.33;100.00;100869.44;5047163;28;20509;-72
2023/11/09 10:25:27;;;;;;;3.88;1.02;;;;;;;16.60;100.00;100896.69;5028815;28;20037;-71
2023/11/09 10:28:00;;;;;;;1.50;0.70;;;;;;;17.23;100.00;100917.28;5046363;28;20470;-71
2023/11/09 10:30:36;;;;;;;2.95;0.80;;;;;;;16.51;100.00;100849.97;5047431;28;20108;-72
2023/11/09 10:33:03;;;;;;;1.88;0.77;;;;;;;17.19;100.00;100861.78;5045780;28;20487;-71
2023/11/09 10:35:28;;;;;;;1.90;0.68;;;;;;;17.02;100.00;100840.22;5047318;28;20036;-72
2023/11/09 10:37:57;;;;;;;1.20;0.50;;;;;;;16.97;100.00;100817.31;5047522;28;20025;-72
2023/11/09 10:40:23;;;;;;;1.52;0.60;;;;;;;16.71;100.00;100974.16;5027260;28;20072;-72
2023/11/09 10:42:52;;;;;;;5.05;0.85;;;;;;;17.29;100.00;101001.88;5045559;28;20055;-72
2023/11/09 10:45:22;;;;;;;1.30;0.50;;;;;;;17.07;100.00;100990.75;5045659;28;20029;-72
2023/11/09 10:47:52;;;;;;;3.78;0.57;;;;;;;17.15;100.00;100998.19;5043503;28;20036;-71
2023/11/09 10:50:21;;;;;;;2.70;0.68;;;;;;;17.32;100.00;101093.47;5045798;28;20032;-72
2023/11/09 10:52:49;;;;;;;1.00;0.40;;;;;;;16.80;100.00;101074.00;5045708;28;21531;-73
2023/11/09 10:55:16;;;;;;;2.70;1.13;;;;;;;16.85;100.00;101087.53;5046283;28;20036;-73
2023/11/09 10:57:43;;;;;;;1.67;0.80;;;;;;;16.83;100.00;101081.59;5045374;28;20462;-71
2023/11/09 11:00:25;;;;;;;0.60;0.45;;;;;;;17.41;100.00;101208.00;5047221;28;20029;-71
2023/11/09 11:02:53;;;;;;;1.75;0.52;;;;;;;16.95;100.00;101206.22;5044856;28;20514;-70
2023/11/09 11:05:25;;;;;;;1.48;0.60;;;;;;;17.18;100.00;101201.97;5045800;28;20048;-71
2023/11/09 11:07:59;;;;;;;2.17;0.73;;;;;;;17.07;100.00;101265.72;5046051;28;20087;-69
2023/11/09 11:10:27;;;;;;;1.17;0.80;;;;;;;17.04;100.00;101206.75;5045812;28;20120;-71
2023/11/09 11:12:55;;;;;;;4.07;1.17;;;;;;;17.20;100.00;101238.72;5046621;28;20021;-70
2023/11/09 11:15:29;;;;;;;2.85;1.20;;;;;;;17.30;100.00;101221.25;5028285;28;20043;-70
2023/11/09 11:18:20;;;;;;;1.33;0.77;;;;;;;17.27;100.00;101304.44;5045897;28;20104;-71
2023/11/09 11:21:06;;;;;;;2.67;0.90;;;;;;;17.70;100.00;101346.72;5045641;28;20033;-71
2023/11/09 11:23:58;;;;;;;2.88;1.02;;;;;;;17.53;100.00;101288.16;5045935;28;20024;-70